Portada
METAR-TAF:

METAR-TAF

Aeroports :

Alma, Michigan, Estats Units d'Amèrica

latitud: 43-19-19N, longitud: 084-41-16W, altitud: 229 m

Observació

L'informe es va fer fa 12 minuts, a les 02:35 UTC
Vent 4 kt del Sud
Temperatura 22°C
Humitat 88%
Pressió 1015 hPa
Visibilitat: 16.1 km
Cel ennuvolat a una alçada de 11000 ft

METAR: KAMN 280235Z AUTO 19004KT 10SM BKN110 22/20 A2997 RMK AO2 T02200200

Hora: 22:47 (02:47 UTC)


TAF: manca

Observacions i pronòstics meteorològics de més de 4000 aeroports (METAR i TAF).

Les estacions disponibles són els punts grocs i vermells al mapa.

Posi el ratolí al punt desitjat per veure el nom de l'estació.

Feu clic per veure les observacions i els pronòstics meteorològics.

Per canviar el mapa: feu clic els botons verds amb una creu de color negre per apropar; al botó verd amb un guió per allunyar la imatge; o en les fletxes verdes per a mapes adjacents.


METAR-TAF: